• Join FlightAware (Why Join?)
  • Login
  • US Flag 
03:08AM EST


 

Airport Tracker/Info


-or-


 

Live Flight TrackerFlight Track Log ✈ SWA2122 ✈ 28-Jul-2014 ✈ KSMF - KBUR

Flight Track Log - Related Links

Times and Time Zones

All times are in EDT time to prevent confusion due to time zone crossing. See the SWA2122 flight status page for this flight to view local times or setup timezone preferences in your user account.

Time Position Orientation Groundspeed Altitude Reporting Facility
EDT Latitude Longitude Course Direction KTS MPH feet Rate Location/Type
09:21AM 38.6500 -121.5667 109° East 182 209 2,000  Level Northern Cal TRACON
09:22AM 38.6167 -121.5000 123° Southeast 240 276 4,500 2,760 Climbing Northern Cal TRACON
09:23AM 38.5667 -121.4000 123° Southeast 296 341 8,100 3,300 Climbing Northern Cal TRACON
09:24AM 38.5353 -121.3383 123° Southeast 296 341 11,000 3,060 Climbing Oakland Center
09:25AM 38.4850 -121.2319 121° Southeast 347 399 13,900 3,180 Climbing Oakland Center
09:26AM 38.3129 -121.0029 109° East  Level FlightAware Approximate
09:26AM 38.4303 -121.1103 120° Southeast 363 418 17,500  Level Oakland Center
09:27AM 38.3761 -120.9933 121° Southeast 381 438 20,400 2,820 Climbing Oakland Center
09:28AM 38.3175 -120.8700 121° Southeast 402 463 23,300 2,220 Climbing Oakland Center
09:29AM 38.2583 -120.7431 121° Southeast 414 476 25,000 1,200 Climbing Oakland Center
09:30AM 38.1811 -120.6333 132° Southeast 423 487 25,800 1,380 Climbing Oakland Center
09:31AM 38.0883 -120.5450 143° Southeast 419 482 27,900 1,560 Climbing Oakland Center
09:32AM 37.9944 -120.4533 142° Southeast 420 483 29,000 1,080 Climbing Oakland Center
09:33AM 37.8872 -120.3853 153° Southeast 431 496 30,200 1,860 Climbing Oakland Center
09:34AM 37.7736 -120.3381 162° South 429 494 32,800 2,520 Climbing Oakland Center
09:35AM 37.6622 -120.2936 162° South 420 483 35,300 2,040 Climbing Oakland Center
09:36AM 37.5547 -120.2478 161° South 409 471 37,000 780 Climbing Oakland Center
09:37AM 37.4481 -120.2039 162° South 406 467 37,000  Level Oakland Center
09:38AM 37.3408 -120.1600 162° South 405 466 37,000  Level Oakland Center
09:39AM 37.2331 -120.1169 162° South 405 466 37,000  Level Oakland Center
09:40AM 37.1258 -120.0736 162° South 405 466 37,000  Level Oakland Center
09:41AM 37.0103 -120.0253 162° South 406 467 37,000  Level Oakland Center
09:42AM 36.9031 -119.9817 162° South 406 467 37,000  Level Oakland Center
09:43AM 36.7947 -119.9375 162° South 408 470 37,000  Level Oakland Center
09:44AM 36.6864 -119.8950 163° South 408 470 37,000  Level Oakland Center
09:45AM 36.5786 -119.8514 162° South 408 470 37,000  Level Oakland Center
09:46AM 36.4697 -119.8075 162° South 409 471 37,000  Level Oakland Center
09:47AM 36.3608 -119.7636 162° South 410 472 37,000  Level Oakland Center
09:48AM 36.2522 -119.7222 163° South 409 471 37,000  Level Oakland Center
09:49AM 36.1225 -119.6706 162° South 409 471 37,000 -600 Level Oakland Center
09:50AM 36.0153 -119.6286 162° South 407 468 35,900 -1,020 Descending Oakland Center
09:51AM 35.9028 -119.6181 176° South 407 468 35,000 -840 Descending Oakland Center
09:52AM 35.7881 -119.6217 181° South 410 472 34,300 -840 Descending Oakland Center
09:53AM 35.6711 -119.6269 182° South 413 475 33,400 -960 Descending Oakland Center
09:54AM 35.5497 -119.6311 182° South 428 493 32,400 -1,380 Descending Oakland Center
09:55AM 35.4297 -119.6100 172° South 440 506 30,600 -1,380 Descending Oakland Center
09:56AM 35.3033 -119.5261 152° Southeast 428 493 29,300 -1,140 Descending Los Angeles Center
09:57AM 35.2011 -119.4572 151° Southeast 422 486 28,100 -1,740 Descending Los Angeles Center
09:59AM 35.1006 -119.3917 152° Southeast 414 476 25,700 -2,520 Descending Los Angeles Center
10:00AM 34.9839 -119.3164 152° Southeast 399 459 22,900 -2,460 Descending Los Angeles Center
10:01AM 34.8892 -119.2544 152° Southeast 390 449 20,700 -2,160 Descending Los Angeles Center
10:02AM 34.7986 -119.1933 151° Southeast 379 436 18,500 -2,220 Descending Los Angeles Center
10:03AM 34.7072 -119.1350 152° Southeast 373 429 16,200 -2,340 Descending Los Angeles Center
10:04AM 34.6056 -119.0694 152° Southeast 372 428 13,700 -2,280 Descending Los Angeles Center
10:05AM 34.5183 -119.0119 151° Southeast 358 412 11,600 -1,740 Descending Los Angeles Center
10:06AM 34.4364 -118.9569 151° Southeast 332 382 10,200 -1,200 Descending Los Angeles Center
10:07AM 34.3706 -118.8989 144° Southeast 294 338 9,200 -1,260 Descending Los Angeles Center
10:08AM 34.3097 -118.8328 138° Southeast 292 336 7,600 -1,620 Descending Los Angeles Center
10:09AM 34.2675 -118.7569 124° Southeast 278 320 6,000 -1,680 Descending Los Angeles Center
10:10AM 34.2411 -118.6686 110° East 276 318 4,200 -1,380 Descending Los Angeles Center
10:11AM 34.2161 -118.5597 105° East 276 318 3,200 -660 Descending Los Angeles Center
10:12AM 34.1986 -118.4897 107° East 218 251 2,900 -600 Descending Los Angeles Center
10:13AM 34.1983 -118.4250 90° East 191 220 2,000 -900 Descending Los Angeles Center
10:16AM 34.2000 -118.3500 90° East  Level FlightAware Approximate
10:23AM 34.2007 -118.3587 90° East  Level Estimated